sensor_id;sensor_type;location;lat;lon;timestamp;temperature;humidity
47336;DHT22;33068;51.990;5.926;2023-03-16T00:00:17;4.40;99.90
47336;DHT22;33068;51.990;5.926;2023-03-16T00:02:45;4.40;99.90
47336;DHT22;33068;51.990;5.926;2023-03-16T00:05:13;4.40;99.90
47336;DHT22;33068;51.990;5.926;2023-03-16T00:07:41;4.40;99.90
47336;DHT22;33068;51.990;5.926;2023-03-16T00:10:09;4.40;99.90
47336;DHT22;33068;51.990;5.926;2023-03-16T00:12:37;4.40;99.90
47336;DHT22;33068;51.990;5.926;2023-03-16T00:15:06;4.30;99.90
47336;DHT22;33068;51.990;5.926;2023-03-16T00:17:34;4.30;99.90
47336;DHT22;33068;51.990;5.926;2023-03-16T00:20:01;4.30;99.90
47336;DHT22;33068;51.990;5.926;2023-03-16T00:22:31;4.20;99.90
47336;DHT22;33068;51.990;5.926;2023-03-16T00:24:58;4.30;99.90
47336;DHT22;33068;51.990;5.926;2023-03-16T00:27:25;4.40;99.90
47336;DHT22;33068;51.990;5.926;2023-03-16T00:29:53;4.40;99.90
47336;DHT22;33068;51.990;5.926;2023-03-16T00:32:27;4.30;99.90
47336;DHT22;33068;51.990;5.926;2023-03-16T00:34:54;4.40;99.90
47336;DHT22;33068;51.990;5.926;2023-03-16T00:37:22;4.40;99.90
47336;DHT22;33068;51.990;5.926;2023-03-16T00:39:50;4.50;99.90
47336;DHT22;33068;51.990;5.926;2023-03-16T00:42:22;4.60;99.90
47336;DHT22;33068;51.990;5.926;2023-03-16T00:44:52;4.50;99.90
47336;DHT22;33068;51.990;5.926;2023-03-16T00:47:24;4.60;99.90
47336;DHT22;33068;51.990;5.926;2023-03-16T00:49:53;4.60;99.90
47336;DHT22;33068;51.990;5.926;2023-03-16T00:52:21;4.60;99.90
47336;DHT22;33068;51.990;5.926;2023-03-16T00:54:49;4.70;99.90
47336;DHT22;33068;51.990;5.926;2023-03-16T00:57:19;4.60;99.90
47336;DHT22;33068;51.990;5.926;2023-03-16T00:59:46;4.70;99.90
47336;DHT22;33068;51.990;5.926;2023-03-16T01:02:15;4.70;99.90
47336;DHT22;33068;51.990;5.926;2023-03-16T01:04:45;4.60;99.90
47336;DHT22;33068;51.990;5.926;2023-03-16T01:07:13;4.70;99.90
47336;DHT22;33068;51.990;5.926;2023-03-16T01:09:41;4.60;99.90
47336;DHT22;33068;51.990;5.926;2023-03-16T01:12:11;4.50;99.90
47336;DHT22;33068;51.990;5.926;2023-03-16T01:14:39;4.50;99.90
47336;DHT22;33068;51.990;5.926;2023-03-16T01:17:07;4.50;99.90
47336;DHT22;33068;51.990;5.926;2023-03-16T01:19:36;4.70;99.90
47336;DHT22;33068;51.990;5.926;2023-03-16T01:22:05;4.60;99.90
47336;DHT22;33068;51.990;5.926;2023-03-16T01:24:34;4.50;99.90
47336;DHT22;33068;51.990;5.926;2023-03-16T01:27:01;4.40;99.90
47336;DHT22;33068;51.990;5.926;2023-03-16T01:29:29;4.40;99.90
47336;DHT22;33068;51.990;5.926;2023-03-16T01:31:58;4.40;99.90
47336;DHT22;33068;51.990;5.926;2023-03-16T01:34:25;4.50;99.90
47336;DHT22;33068;51.990;5.926;2023-03-16T01:36:54;4.30;99.90
47336;DHT22;33068;51.990;5.926;2023-03-16T01:39:42;4.30;99.90
47336;DHT22;33068;51.990;5.926;2023-03-16T01:42:11;4.40;99.90
47336;DHT22;33068;51.990;5.926;2023-03-16T01:44:53;4.30;99.90
47336;DHT22;33068;51.990;5.926;2023-03-16T01:47:23;4.20;99.90
47336;DHT22;33068;51.990;5.926;2023-03-16T01:49:51;4.20;99.90
47336;DHT22;33068;51.990;5.926;2023-03-16T01:52:24;4.20;99.90
47336;DHT22;33068;51.990;5.926;2023-03-16T01:54:57;4.30;99.90
47336;DHT22;33068;51.990;5.926;2023-03-16T01:57:28;4.20;99.90
47336;DHT22;33068;51.990;5.926;2023-03-16T02:00:03;4.30;99.90
47336;DHT22;33068;51.990;5.926;2023-03-16T02:02:41;4.30;99.90
47336;DHT22;33068;51.990;5.926;2023-03-16T02:05:15;4.20;99.90
47336;DHT22;33068;51.990;5.926;2023-03-16T02:07:46;4.20;99.90
47336;DHT22;33068;51.990;5.926;2023-03-16T02:10:19;4.60;99.90
47336;DHT22;33068;51.990;5.926;2023-03-16T02:12:47;4.20;99.90
47336;DHT22;33068;51.990;5.926;2023-03-16T02:15:14;4.20;99.90
47336;DHT22;33068;51.990;5.926;2023-03-16T02:17:44;4.20;99.90
47336;DHT22;33068;51.990;5.926;2023-03-16T02:20:24;4.10;99.90
47336;DHT22;33068;51.990;5.926;2023-03-16T02:22:53;4.10;99.90
47336;DHT22;33068;51.990;5.926;2023-03-16T02:25:28;4.10;99.90
47336;DHT22;33068;51.990;5.926;2023-03-16T02:28:03;4.10;99.90
47336;DHT22;33068;51.990;5.926;2023-03-16T02:30:40;4.10;99.90
47336;DHT22;33068;51.990;5.926;2023-03-16T02:33:08;4.10;99.90
47336;DHT22;33068;51.990;5.926;2023-03-16T02:35:35;4.10;99.90
47336;DHT22;33068;51.990;5.926;2023-03-16T02:38:03;4.00;99.90
47336;DHT22;33068;51.990;5.926;2023-03-16T02:40:38;4.00;99.90
47336;DHT22;33068;51.990;5.926;2023-03-16T02:43:14;4.00;99.90
47336;DHT22;33068;51.990;5.926;2023-03-16T02:45:53;4.00;99.90
47336;DHT22;33068;51.990;5.926;2023-03-16T02:48:27;3.90;99.90
47336;DHT22;33068;51.990;5.926;2023-03-16T02:50:57;4.00;99.90
47336;DHT22;33068;51.990;5.926;2023-03-16T02:53:26;4.00;99.90
47336;DHT22;33068;51.990;5.926;2023-03-16T02:55:55;4.00;99.90
47336;DHT22;33068;51.990;5.926;2023-03-16T02:58:22;4.00;99.90
47336;DHT22;33068;51.990;5.926;2023-03-16T03:00:51;4.10;99.90
47336;DHT22;33068;51.990;5.926;2023-03-16T03:03:18;4.10;99.90
47336;DHT22;33068;51.990;5.926;2023-03-16T03:05:46;4.00;99.90
47336;DHT22;33068;51.990;5.926;2023-03-16T03:08:13;4.10;99.90
47336;DHT22;33068;51.990;5.926;2023-03-16T03:10:41;4.00;99.90
47336;DHT22;33068;51.990;5.926;2023-03-16T03:13:09;4.10;99.90
47336;DHT22;33068;51.990;5.926;2023-03-16T03:15:37;4.30;99.90
47336;DHT22;33068;51.990;5.926;2023-03-16T03:18:09;4.10;99.90
47336;DHT22;33068;51.990;5.926;2023-03-16T03:20:38;4.20;99.90
47336;DHT22;33068;51.990;5.926;2023-03-16T03:23:05;4.20;99.90
47336;DHT22;33068;51.990;5.926;2023-03-16T03:25:33;4.20;99.90
47336;DHT22;33068;51.990;5.926;2023-03-16T03:28:01;4.30;99.90
47336;DHT22;33068;51.990;5.926;2023-03-16T03:30:30;4.30;99.90
47336;DHT22;33068;51.990;5.926;2023-03-16T03:32:57;4.30;99.90
47336;DHT22;33068;51.990;5.926;2023-03-16T03:35:27;4.30;99.90
47336;DHT22;33068;51.990;5.926;2023-03-16T03:37:54;4.30;99.90
47336;DHT22;33068;51.990;5.926;2023-03-16T03:40:22;4.30;99.90
47336;DHT22;33068;51.990;5.926;2023-03-16T03:42:55;4.30;99.90
47336;DHT22;33068;51.990;5.926;2023-03-16T03:45:25;4.30;99.90
47336;DHT22;33068;51.990;5.926;2023-03-16T03:47:53;4.40;99.90
47336;DHT22;33068;51.990;5.926;2023-03-16T03:50:22;4.40;99.90
47336;DHT22;33068;51.990;5.926;2023-03-16T03:53:14;4.30;99.90
47336;DHT22;33068;51.990;5.926;2023-03-16T03:56:08;4.20;99.90
47336;DHT22;33068;51.990;5.926;2023-03-16T03:58:36;4.30;99.90
47336;DHT22;33068;51.990;5.926;2023-03-16T04:01:04;4.20;99.90
47336;DHT22;33068;51.990;5.926;2023-03-16T04:03:33;4.40;99.90
47336;DHT22;33068;51.990;5.926;2023-03-16T04:06:00;4.30;99.90
47336;DHT22;33068;51.990;5.926;2023-03-16T04:08:30;4.20;99.90
47336;DHT22;33068;51.990;5.926;2023-03-16T04:10:57;4.30;99.90
47336;DHT22;33068;51.990;5.926;2023-03-16T04:13:26;4.20;99.90
47336;DHT22;33068;51.990;5.926;2023-03-16T04:15:55;4.20;99.90
47336;DHT22;33068;51.990;5.926;2023-03-16T04:18:28;4.20;99.90
47336;DHT22;33068;51.990;5.926;2023-03-16T04:21:07;4.10;99.90
47336;DHT22;33068;51.990;5.926;2023-03-16T04:23:39;4.20;99.90
47336;DHT22;33068;51.990;5.926;2023-03-16T04:26:09;4.30;99.90
47336;DHT22;33068;51.990;5.926;2023-03-16T04:28:36;4.20;99.90
47336;DHT22;33068;51.990;5.926;2023-03-16T04:31:05;4.20;99.90
47336;DHT22;33068;51.990;5.926;2023-03-16T04:33:44;4.20;99.90
47336;DHT22;33068;51.990;5.926;2023-03-16T04:36:11;4.20;99.90
47336;DHT22;33068;51.990;5.926;2023-03-16T04:38:40;4.20;99.90
47336;DHT22;33068;51.990;5.926;2023-03-16T04:41:09;4.50;99.90
47336;DHT22;33068;51.990;5.926;2023-03-16T04:43:47;4.10;99.90
47336;DHT22;33068;51.990;5.926;2023-03-16T04:46:19;4.10;99.90
47336;DHT22;33068;51.990;5.926;2023-03-16T04:48:46;4.00;99.90
47336;DHT22;33068;51.990;5.926;2023-03-16T04:51:13;4.10;99.90
47336;DHT22;33068;51.990;5.926;2023-03-16T04:53:50;4.10;99.90
47336;DHT22;33068;51.990;5.926;2023-03-16T04:56:27;4.00;99.90
47336;DHT22;33068;51.990;5.926;2023-03-16T04:58:59;4.20;99.90
47336;DHT22;33068;51.990;5.926;2023-03-16T05:01:30;3.90;99.90
47336;DHT22;33068;51.990;5.926;2023-03-16T05:04:01;4.00;99.90
47336;DHT22;33068;51.990;5.926;2023-03-16T05:06:31;3.90;99.90
47336;DHT22;33068;51.990;5.926;2023-03-16T05:09:02;4.00;99.90
47336;DHT22;33068;51.990;5.926;2023-03-16T05:11:33;4.10;99.90
47336;DHT22;33068;51.990;5.926;2023-03-16T05:14:03;3.80;99.90
47336;DHT22;33068;51.990;5.926;2023-03-16T05:16:34;3.90;99.90
47336;DHT22;33068;51.990;5.926;2023-03-16T05:19:01;3.80;99.90
47336;DHT22;33068;51.990;5.926;2023-03-16T05:21:32;3.80;99.90
47336;DHT22;33068;51.990;5.926;2023-03-16T05:24:06;3.90;99.90
47336;DHT22;33068;51.990;5.926;2023-03-16T05:26:44;3.90;99.90
47336;DHT22;33068;51.990;5.926;2023-03-16T05:29:15;4.00;99.90
47336;DHT22;33068;51.990;5.926;2023-03-16T05:31:44;3.90;99.90
47336;DHT22;33068;51.990;5.926;2023-03-16T05:34:15;4.00;99.90
47336;DHT22;33068;51.990;5.926;2023-03-16T05:36:42;4.10;99.90
47336;DHT22;33068;51.990;5.926;2023-03-16T05:39:15;4.10;99.90
47336;DHT22;33068;51.990;5.926;2023-03-16T05:41:46;4.40;99.90
47336;DHT22;33068;51.990;5.926;2023-03-16T05:44:22;4.00;99.90
47336;DHT22;33068;51.990;5.926;2023-03-16T05:47:13;4.00;99.90
47336;DHT22;33068;51.990;5.926;2023-03-16T05:49:45;4.00;99.90
47336;DHT22;33068;51.990;5.926;2023-03-16T05:52:24;4.10;99.90
47336;DHT22;33068;51.990;5.926;2023-03-16T05:54:53;3.90;99.90
47336;DHT22;33068;51.990;5.926;2023-03-16T05:57:21;4.00;99.90
47336;DHT22;33068;51.990;5.926;2023-03-16T05:59:50;4.10;99.90
47336;DHT22;33068;51.990;5.926;2023-03-16T06:02:19;4.10;99.90
47336;DHT22;33068;51.990;5.926;2023-03-16T06:04:46;4.00;99.90
47336;DHT22;33068;51.990;5.926;2023-03-16T06:07:13;4.00;99.90
47336;DHT22;33068;51.990;5.926;2023-03-16T06:09:41;4.10;99.90
47336;DHT22;33068;51.990;5.926;2023-03-16T06:12:15;4.10;99.90
47336;DHT22;33068;51.990;5.926;2023-03-16T06:14:42;4.10;99.90
47336;DHT22;33068;51.990;5.926;2023-03-16T06:17:10;4.10;99.90
47336;DHT22;33068;51.990;5.926;2023-03-16T06:19:39;4.00;99.90
47336;DHT22;33068;51.990;5.926;2023-03-16T06:22:12;4.10;99.90
47336;DHT22;33068;51.990;5.926;2023-03-16T06:24:47;4.10;99.90
47336;DHT22;33068;51.990;5.926;2023-03-16T06:27:16;3.90;99.90
47336;DHT22;33068;51.990;5.926;2023-03-16T06:29:59;4.10;99.90
47336;DHT22;33068;51.990;5.926;2023-03-16T06:32:26;4.00;99.90
47336;DHT22;33068;51.990;5.926;2023-03-16T06:34:54;4.40;99.90
47336;DHT22;33068;51.990;5.926;2023-03-16T06:37:27;4.00;99.90
47336;DHT22;33068;51.990;5.926;2023-03-16T06:39:56;4.00;99.90
47336;DHT22;33068;51.990;5.926;2023-03-16T06:42:25;4.10;99.90
47336;DHT22;33068;51.990;5.926;2023-03-16T06:44:58;4.10;99.90
47336;DHT22;33068;51.990;5.926;2023-03-16T06:47:26;4.10;99.90
47336;DHT22;33068;51.990;5.926;2023-03-16T06:49:53;4.10;99.90
47336;DHT22;33068;51.990;5.926;2023-03-16T06:52:29;4.10;99.90
47336;DHT22;33068;51.990;5.926;2023-03-16T06:54:57;4.20;99.90
47336;DHT22;33068;51.990;5.926;2023-03-16T06:57:28;4.20;99.90
47336;DHT22;33068;51.990;5.926;2023-03-16T06:59:56;4.30;99.90
47336;DHT22;33068;51.990;5.926;2023-03-16T07:02:24;4.40;99.90
47336;DHT22;33068;51.990;5.926;2023-03-16T07:04:52;4.30;99.90
47336;DHT22;33068;51.990;5.926;2023-03-16T07:07:20;4.30;99.90
47336;DHT22;33068;51.990;5.926;2023-03-16T07:09:47;4.40;99.90
47336;DHT22;33068;51.990;5.926;2023-03-16T07:12:17;4.30;99.90
47336;DHT22;33068;51.990;5.926;2023-03-16T07:14:46;4.30;99.90
47336;DHT22;33068;51.990;5.926;2023-03-16T07:17:13;4.30;99.90
47336;DHT22;33068;51.990;5.926;2023-03-16T07:19:41;4.30;99.90
47336;DHT22;33068;51.990;5.926;2023-03-16T07:22:08;4.30;99.90
47336;DHT22;33068;51.990;5.926;2023-03-16T07:24:37;4.30;99.90
47336;DHT22;33068;51.990;5.926;2023-03-16T07:27:09;4.40;99.90
47336;DHT22;33068;51.990;5.926;2023-03-16T07:29:36;4.50;99.90
47336;DHT22;33068;51.990;5.926;2023-03-16T07:32:05;4.60;99.90
47336;DHT22;33068;51.990;5.926;2023-03-16T07:34:37;4.60;99.90
47336;DHT22;33068;51.990;5.926;2023-03-16T07:37:06;4.70;99.90
47336;DHT22;33068;51.990;5.926;2023-03-16T07:39:33;4.70;99.90
47336;DHT22;33068;51.990;5.926;2023-03-16T07:42:07;4.70;99.90
47336;DHT22;33068;51.990;5.926;2023-03-16T07:45:08;4.70;99.90
47336;DHT22;33068;51.990;5.926;2023-03-16T07:47:40;4.70;99.90
47336;DHT22;33068;51.990;5.926;2023-03-16T07:50:30;4.60;99.90
47336;DHT22;33068;51.990;5.926;2023-03-16T07:52:58;4.70;99.90
47336;DHT22;33068;51.990;5.926;2023-03-16T07:55:25;4.70;99.90
47336;DHT22;33068;51.990;5.926;2023-03-16T07:57:57;4.80;99.90
47336;DHT22;33068;51.990;5.926;2023-03-16T08:00:30;4.60;99.90
47336;DHT22;33068;51.990;5.926;2023-03-16T08:02:59;4.60;99.90
47336;DHT22;33068;51.990;5.926;2023-03-16T08:05:34;4.80;99.90
47336;DHT22;33068;51.990;5.926;2023-03-16T08:08:07;4.60;99.90
47336;DHT22;33068;51.990;5.926;2023-03-16T08:10:38;4.60;99.90
47336;DHT22;33068;51.990;5.926;2023-03-16T08:13:11;4.60;99.90
47336;DHT22;33068;51.990;5.926;2023-03-16T08:15:45;4.60;99.90
47336;DHT22;33068;51.990;5.926;2023-03-16T08:18:27;4.60;99.90
47336;DHT22;33068;51.990;5.926;2023-03-16T08:20:55;4.60;99.90
47336;DHT22;33068;51.990;5.926;2023-03-16T08:23:24;4.60;99.90
47336;DHT22;33068;51.990;5.926;2023-03-16T08:25:52;4.70;99.90
47336;DHT22;33068;51.990;5.926;2023-03-16T08:28:31;4.80;99.90
47336;DHT22;33068;51.990;5.926;2023-03-16T08:31:07;4.70;99.90
47336;DHT22;33068;51.990;5.926;2023-03-16T08:33:47;4.70;99.90
47336;DHT22;33068;51.990;5.926;2023-03-16T08:36:20;4.90;99.90
47336;DHT22;33068;51.990;5.926;2023-03-16T08:38:51;4.80;99.90
47336;DHT22;33068;51.990;5.926;2023-03-16T08:41:23;5.00;99.90
47336;DHT22;33068;51.990;5.926;2023-03-16T08:43:55;5.10;99.90
47336;DHT22;33068;51.990;5.926;2023-03-16T08:46:28;5.20;99.90
47336;DHT22;33068;51.990;5.926;2023-03-16T08:52:14;5.30;99.90
47336;DHT22;33068;51.990;5.926;2023-03-16T08:54:52;5.40;99.90
47336;DHT22;33068;51.990;5.926;2023-03-16T08:57:23;5.60;99.90
47336;DHT22;33068;51.990;5.926;2023-03-16T08:59:51;5.50;99.90
47336;DHT22;33068;51.990;5.926;2023-03-16T09:02:18;5.60;99.90
47336;DHT22;33068;51.990;5.926;2023-03-16T09:04:49;5.40;99.90
47336;DHT22;33068;51.990;5.926;2023-03-16T09:07:21;5.50;99.90
47336;DHT22;33068;51.990;5.926;2023-03-16T09:09:48;5.60;99.90
47336;DHT22;33068;51.990;5.926;2023-03-16T09:12:18;5.60;99.90
47336;DHT22;33068;51.990;5.926;2023-03-16T09:14:45;5.70;99.90
47336;DHT22;33068;51.990;5.926;2023-03-16T09:17:13;5.70;99.90
47336;DHT22;33068;51.990;5.926;2023-03-16T09:19:43;5.70;99.90
47336;DHT22;33068;51.990;5.926;2023-03-16T09:22:11;6.00;99.90
47336;DHT22;33068;51.990;5.926;2023-03-16T09:24:40;5.70;99.90
47336;DHT22;33068;51.990;5.926;2023-03-16T09:27:07;5.70;99.90
47336;DHT22;33068;51.990;5.926;2023-03-16T09:29:34;5.80;99.90
47336;DHT22;33068;51.990;5.926;2023-03-16T09:32:02;5.90;99.90
47336;DHT22;33068;51.990;5.926;2023-03-16T09:34:30;5.90;99.90
47336;DHT22;33068;51.990;5.926;2023-03-16T09:36:57;5.70;99.90
47336;DHT22;33068;51.990;5.926;2023-03-16T09:39:25;6.00;99.90
47336;DHT22;33068;51.990;5.926;2023-03-16T09:42:02;6.50;99.90
47336;DHT22;33068;51.990;5.926;2023-03-16T09:44:40;6.20;99.90
47336;DHT22;33068;51.990;5.926;2023-03-16T09:47:12;6.50;99.90
47336;DHT22;33068;51.990;5.926;2023-03-16T09:49:43;6.60;99.90
47336;DHT22;33068;51.990;5.926;2023-03-16T09:52:22;6.20;99.90
47336;DHT22;33068;51.990;5.926;2023-03-16T09:54:56;6.40;99.90
47336;DHT22;33068;51.990;5.926;2023-03-16T09:57:30;6.40;99.90
47336;DHT22;33068;51.990;5.926;2023-03-16T10:00:13;6.40;99.90
47336;DHT22;33068;51.990;5.926;2023-03-16T10:03:15;6.50;99.90
47336;DHT22;33068;51.990;5.926;2023-03-16T10:05:45;6.50;99.90
47336;DHT22;33068;51.990;5.926;2023-03-16T10:08:17;6.60;99.90
47336;DHT22;33068;51.990;5.926;2023-03-16T10:13:47;6.60;99.90
47336;DHT22;33068;51.990;5.926;2023-03-16T10:16:17;6.70;99.90
47336;DHT22;33068;51.990;5.926;2023-03-16T10:18:52;6.70;99.90
47336;DHT22;33068;51.990;5.926;2023-03-16T10:21:23;6.80;99.90
47336;DHT22;33068;51.990;5.926;2023-03-16T10:23:54;7.10;99.90
47336;DHT22;33068;51.990;5.926;2023-03-16T10:26:32;7.00;99.90
47336;DHT22;33068;51.990;5.926;2023-03-16T10:29:03;7.10;99.90
47336;DHT22;33068;51.990;5.926;2023-03-16T10:31:33;7.30;99.90
47336;DHT22;33068;51.990;5.926;2023-03-16T10:34:06;7.30;99.90
47336;DHT22;33068;51.990;5.926;2023-03-16T10:36:37;7.50;99.90
47336;DHT22;33068;51.990;5.926;2023-03-16T10:39:10;7.70;99.90
47336;DHT22;33068;51.990;5.926;2023-03-16T10:41:40;7.90;99.90
47336;DHT22;33068;51.990;5.926;2023-03-16T10:44:26;8.10;99.90
47336;DHT22;33068;51.990;5.926;2023-03-16T10:47:17;8.30;99.90
47336;DHT22;33068;51.990;5.926;2023-03-16T10:49:51;8.40;99.90
47336;DHT22;33068;51.990;5.926;2023-03-16T10:52:21;8.60;99.90
47336;DHT22;33068;51.990;5.926;2023-03-16T10:54:53;8.50;99.90
47336;DHT22;33068;51.990;5.926;2023-03-16T10:57:29;8.30;99.90
47336;DHT22;33068;51.990;5.926;2023-03-16T11:00:07;8.50;99.90
47336;DHT22;33068;51.990;5.926;2023-03-16T11:02:37;8.60;99.90
47336;DHT22;33068;51.990;5.926;2023-03-16T11:05:25;8.70;99.90
47336;DHT22;33068;51.990;5.926;2023-03-16T11:07:58;9.00;99.90
47336;DHT22;33068;51.990;5.926;2023-03-16T11:10:29;9.40;99.90
47336;DHT22;33068;51.990;5.926;2023-03-16T11:13:02;9.60;99.90
47336;DHT22;33068;51.990;5.926;2023-03-16T11:15:44;9.50;99.90
47336;DHT22;33068;51.990;5.926;2023-03-16T11:18:23;9.60;99.90
47336;DHT22;33068;51.990;5.926;2023-03-16T11:20:52;9.60;99.90
47336;DHT22;33068;51.990;5.926;2023-03-16T11:23:27;9.70;99.90
47336;DHT22;33068;51.990;5.926;2023-03-16T11:25:55;9.70;99.90
47336;DHT22;33068;51.990;5.926;2023-03-16T11:28:33;9.80;99.90
47336;DHT22;33068;51.990;5.926;2023-03-16T11:31:18;9.80;99.90
47336;DHT22;33068;51.990;5.926;2023-03-16T11:34:04;9.90;99.90
47336;DHT22;33068;51.990;5.926;2023-03-16T11:36:46;9.90;99.90
47336;DHT22;33068;51.990;5.926;2023-03-16T11:39:23;9.90;99.90
47336;DHT22;33068;51.990;5.926;2023-03-16T11:42:02;9.80;99.90
47336;DHT22;33068;51.990;5.926;2023-03-16T11:44:37;9.80;99.90
47336;DHT22;33068;51.990;5.926;2023-03-16T11:50:13;9.90;99.90
47336;DHT22;33068;51.990;5.926;2023-03-16T11:52:48;9.90;99.90
47336;DHT22;33068;51.990;5.926;2023-03-16T11:55:31;9.90;99.90
47336;DHT22;33068;51.990;5.926;2023-03-16T11:58:13;10.00;99.90
47336;DHT22;33068;51.990;5.926;2023-03-16T12:00:54;10.00;99.90
47336;DHT22;33068;51.990;5.926;2023-03-16T12:03:49;9.90;99.90
47336;DHT22;33068;51.990;5.926;2023-03-16T12:06:33;10.00;99.90
47336;DHT22;33068;51.990;5.926;2023-03-16T12:09:18;10.10;99.90
47336;DHT22;33068;51.990;5.926;2023-03-16T12:11:54;10.00;99.90
47336;DHT22;33068;51.990;5.926;2023-03-16T12:14:25;10.00;99.90
47336;DHT22;33068;51.990;5.926;2023-03-16T12:17:02;10.10;99.90
47336;DHT22;33068;51.990;5.926;2023-03-16T12:19:43;10.30;99.90
47336;DHT22;33068;51.990;5.926;2023-03-16T12:22:27;10.30;99.90
47336;DHT22;33068;51.990;5.926;2023-03-16T12:24:59;10.30;99.90
47336;DHT22;33068;51.990;5.926;2023-03-16T12:27:38;10.50;99.90
47336;DHT22;33068;51.990;5.926;2023-03-16T12:30:26;10.50;99.90
47336;DHT22;33068;51.990;5.926;2023-03-16T12:33:01;10.50;99.90
47336;DHT22;33068;51.990;5.926;2023-03-16T12:35:51;10.60;99.90
47336;DHT22;33068;51.990;5.926;2023-03-16T12:38:36;10.80;99.90
47336;DHT22;33068;51.990;5.926;2023-03-16T12:41:22;11.00;99.90
47336;DHT22;33068;51.990;5.926;2023-03-16T12:44:10;11.20;99.90
47336;DHT22;33068;51.990;5.926;2023-03-16T12:47:06;11.30;99.90
47336;DHT22;33068;51.990;5.926;2023-03-16T12:49:44;11.40;99.90
47336;DHT22;33068;51.990;5.926;2023-03-16T12:52:14;11.50;99.90
47336;DHT22;33068;51.990;5.926;2023-03-16T12:55:05;11.80;99.90
47336;DHT22;33068;51.990;5.926;2023-03-16T12:57:33;11.90;99.90
47336;DHT22;33068;51.990;5.926;2023-03-16T13:00:05;12.00;99.90
47336;DHT22;33068;51.990;5.926;2023-03-16T13:02:42;12.00;99.90
47336;DHT22;33068;51.990;5.926;2023-03-16T13:05:15;12.00;99.90
47336;DHT22;33068;51.990;5.926;2023-03-16T13:08:02;12.30;99.90
47336;DHT22;33068;51.990;5.926;2023-03-16T13:10:34;12.30;99.90
47336;DHT22;33068;51.990;5.926;2023-03-16T13:13:16;12.30;99.90
47336;DHT22;33068;51.990;5.926;2023-03-16T13:16:01;12.50;99.90
47336;DHT22;33068;51.990;5.926;2023-03-16T13:18:35;12.40;99.90
47336;DHT22;33068;51.990;5.926;2023-03-16T13:21:15;12.40;99.90
47336;DHT22;33068;51.990;5.926;2023-03-16T13:23:53;12.60;99.90
47336;DHT22;33068;51.990;5.926;2023-03-16T13:26:35;12.70;99.90
47336;DHT22;33068;51.990;5.926;2023-03-16T13:29:20;12.70;99.90
47336;DHT22;33068;51.990;5.926;2023-03-16T13:31:49;12.50;99.80
47336;DHT22;33068;51.990;5.926;2023-03-16T13:34:22;12.50;99.00
47336;DHT22;33068;51.990;5.926;2023-03-16T13:36:54;12.50;99.90
47336;DHT22;33068;51.990;5.926;2023-03-16T13:39:27;12.60;99.80
47336;DHT22;33068;51.990;5.926;2023-03-16T13:41:56;12.80;99.20
47336;DHT22;33068;51.990;5.926;2023-03-16T13:44:26;12.70;98.90
47336;DHT22;33068;51.990;5.926;2023-03-16T13:46:54;12.60;99.50
47336;DHT22;33068;51.990;5.926;2023-03-16T13:49:22;12.60;99.40
47336;DHT22;33068;51.990;5.926;2023-03-16T13:51:49;12.50;99.50
47336;DHT22;33068;51.990;5.926;2023-03-16T13:54:24;12.60;99.80
47336;DHT22;33068;51.990;5.926;2023-03-16T13:56:55;12.70;99.10
47336;DHT22;33068;51.990;5.926;2023-03-16T13:59:23;12.60;99.80
47336;DHT22;33068;51.990;5.926;2023-03-16T14:01:54;12.70;99.90
47336;DHT22;33068;51.990;5.926;2023-03-16T14:04:26;12.40;99.80
47336;DHT22;33068;51.990;5.926;2023-03-16T14:06:55;12.70;99.90
47336;DHT22;33068;51.990;5.926;2023-03-16T14:09:27;13.00;99.90
47336;DHT22;33068;51.990;5.926;2023-03-16T14:11:55;13.00;98.90
47336;DHT22;33068;51.990;5.926;2023-03-16T14:14:26;12.80;99.40
47336;DHT22;33068;51.990;5.926;2023-03-16T14:16:59;12.80;99.90
47336;DHT22;33068;51.990;5.926;2023-03-16T14:19:30;12.90;99.30
47336;DHT22;33068;51.990;5.926;2023-03-16T14:22:03;12.90;99.90
47336;DHT22;33068;51.990;5.926;2023-03-16T14:24:35;12.90;99.30
47336;DHT22;33068;51.990;5.926;2023-03-16T14:27:24;12.80;99.60
47336;DHT22;33068;51.990;5.926;2023-03-16T14:29:58;12.70;99.80
47336;DHT22;33068;51.990;5.926;2023-03-16T14:32:30;13.00;99.80
47336;DHT22;33068;51.990;5.926;2023-03-16T14:35:10;13.10;99.80
47336;DHT22;33068;51.990;5.926;2023-03-16T14:37:39;13.20;99.40
47336;DHT22;33068;51.990;5.926;2023-03-16T14:40:22;13.20;99.70
47336;DHT22;33068;51.990;5.926;2023-03-16T14:42:54;13.10;99.80
47336;DHT22;33068;51.990;5.926;2023-03-16T14:45:23;13.00;99.90
47336;DHT22;33068;51.990;5.926;2023-03-16T14:47:53;13.00;99.80
47336;DHT22;33068;51.990;5.926;2023-03-16T14:50:23;12.90;99.70
47336;DHT22;33068;51.990;5.926;2023-03-16T14:52:53;12.90;99.90
47336;DHT22;33068;51.990;5.926;2023-03-16T14:55:23;12.90;99.90
47336;DHT22;33068;51.990;5.926;2023-03-16T14:57:52;12.90;99.40
47336;DHT22;33068;51.990;5.926;2023-03-16T15:00:21;13.00;99.90
47336;DHT22;33068;51.990;5.926;2023-03-16T15:02:58;13.20;99.70
47336;DHT22;33068;51.990;5.926;2023-03-16T15:05:32;13.30;99.80
47336;DHT22;33068;51.990;5.926;2023-03-16T15:08:02;13.40;99.90
47336;DHT22;33068;51.990;5.926;2023-03-16T15:10:34;13.60;99.60
47336;DHT22;33068;51.990;5.926;2023-03-16T15:13:06;13.80;99.60
47336;DHT22;33068;51.990;5.926;2023-03-16T15:15:42;13.90;98.80
47336;DHT22;33068;51.990;5.926;2023-03-16T15:18:12;13.80;97.80
47336;DHT22;33068;51.990;5.926;2023-03-16T15:20:44;13.70;97.90
47336;DHT22;33068;51.990;5.926;2023-03-16T15:23:15;13.80;97.80
47336;DHT22;33068;51.990;5.926;2023-03-16T15:25:45;13.90;97.60
47336;DHT22;33068;51.990;5.926;2023-03-16T15:28:15;13.90;97.40
47336;DHT22;33068;51.990;5.926;2023-03-16T15:30:44;14.10;97.80
47336;DHT22;33068;51.990;5.926;2023-03-16T15:33:12;14.30;96.60
47336;DHT22;33068;51.990;5.926;2023-03-16T15:35:42;14.20;96.70
47336;DHT22;33068;51.990;5.926;2023-03-16T15:38:13;14.10;97.30
47336;DHT22;33068;51.990;5.926;2023-03-16T15:40:44;14.10;96.90
47336;DHT22;33068;51.990;5.926;2023-03-16T15:43:15;14.30;96.20
47336;DHT22;33068;51.990;5.926;2023-03-16T15:45:43;14.30;96.00
47336;DHT22;33068;51.990;5.926;2023-03-16T15:48:11;14.20;96.10
47336;DHT22;33068;51.990;5.926;2023-03-16T15:50:40;14.40;96.80
47336;DHT22;33068;51.990;5.926;2023-03-16T15:53:12;14.30;96.20
47336;DHT22;33068;51.990;5.926;2023-03-16T15:55:44;14.50;95.90
47336;DHT22;33068;51.990;5.926;2023-03-16T15:58:16;14.60;95.80
47336;DHT22;33068;51.990;5.926;2023-03-16T16:00:45;14.60;95.90
47336;DHT22;33068;51.990;5.926;2023-03-16T16:03:13;14.50;95.20
47336;DHT22;33068;51.990;5.926;2023-03-16T16:05:43;14.30;95.70
47336;DHT22;33068;51.990;5.926;2023-03-16T16:08:13;14.30;96.10
47336;DHT22;33068;51.990;5.926;2023-03-16T16:10:41;14.40;96.10
47336;DHT22;33068;51.990;5.926;2023-03-16T16:13:12;14.40;95.80
47336;DHT22;33068;51.990;5.926;2023-03-16T16:15:40;14.30;95.90
47336;DHT22;33068;51.990;5.926;2023-03-16T16:18:23;14.20;95.70
47336;DHT22;33068;51.990;5.926;2023-03-16T16:20:51;14.10;96.40
47336;DHT22;33068;51.990;5.926;2023-03-16T16:23:21;14.20;96.10